createdAt,value
2023-03-07T00:00:07.437Z,2.00
2023-03-07T00:01:11.129Z,3.50
2023-03-07T00:02:17.500Z,3.00
2023-03-07T00:03:21.258Z,2.00
2023-03-07T00:04:27.408Z,1.00
2023-03-07T00:05:31.764Z,1.50
2023-03-07T00:06:35.125Z,2.00
2023-03-07T00:07:38.783Z,2.50
2023-03-07T00:08:43.844Z,2.25
2023-03-07T00:09:47.769Z,2.00
2023-03-07T00:10:52.291Z,1.25
2023-03-07T00:11:56.058Z,2.00
2023-03-07T00:12:59.997Z,2.50
2023-03-07T00:14:04.081Z,2.00
2023-03-07T00:15:08.143Z,1.50
2023-03-07T00:16:11.965Z,1.75
2023-03-07T00:17:15.884Z,1.00
2023-03-07T00:18:19.052Z,1.00
2023-03-07T00:19:22.251Z,1.00
2023-03-07T00:20:26.193Z,1.50
2023-03-07T00:21:30.388Z,1.75
2023-03-07T00:22:34.159Z,1.50
2023-03-07T00:23:38.407Z,1.00
2023-03-07T00:24:42.116Z,2.00
2023-03-07T00:25:46.114Z,1.50
2023-03-07T00:26:50.236Z,1.00
2023-03-07T00:27:53.429Z,1.25
2023-03-07T00:28:57.334Z,1.00
2023-03-07T00:30:01.758Z,1.25
2023-03-07T00:31:05.774Z,2.50
2023-03-07T00:32:09.581Z,2.00
2023-03-07T00:33:13.840Z,2.50
2023-03-07T00:34:17.452Z,2.50
2023-03-07T00:35:21.062Z,1.50
2023-03-07T00:36:25.995Z,1.75
2023-03-07T00:37:32.404Z,2.00
2023-03-07T00:38:39.621Z,2.50
2023-03-07T00:39:43.629Z,2.50
2023-03-07T00:40:47.376Z,1.75
2023-03-07T00:41:51.524Z,2.00
2023-03-07T00:42:55.616Z,2.00
2023-03-07T00:44:00.324Z,2.50
2023-03-07T00:45:04.484Z,1.75
2023-03-07T00:46:08.396Z,2.00
2023-03-07T00:47:12.574Z,3.25
2023-03-07T00:48:17.033Z,4.50
2023-03-07T00:49:21.074Z,2.50
2023-03-07T00:50:24.899Z,1.00
2023-03-07T00:51:29.050Z,1.75
2023-03-07T00:52:33.197Z,1.75
2023-03-07T00:53:39.154Z,2.00
2023-03-07T00:54:42.806Z,2.00
2023-03-07T00:55:46.561Z,2.00
2023-03-07T00:56:50.363Z,1.50
2023-03-07T00:57:54.172Z,1.50
2023-03-07T00:58:58.218Z,2.00
2023-03-07T01:00:02.137Z,3.00
2023-03-07T01:02:22.165Z,3.00
2023-03-07T01:03:25.786Z,3.00
2023-03-07T01:04:29.723Z,1.50
2023-03-07T01:06:49.478Z,2.00
2023-03-07T01:07:53.308Z,2.50
2023-03-07T01:09:01.268Z,2.50
2023-03-07T01:10:05.575Z,1.50
2023-03-07T01:11:09.370Z,1.75
2023-03-07T01:12:13.676Z,2.50
2023-03-07T01:14:28.502Z,2.25
2023-03-07T01:15:32.133Z,2.75
2023-03-07T01:16:35.615Z,1.75
2023-03-07T01:18:55.548Z,2.50
2023-03-07T01:19:59.339Z,3.00
2023-03-07T01:21:03.180Z,2.25
2023-03-07T01:22:06.969Z,2.50
2023-03-07T01:23:10.773Z,2.75
2023-03-07T01:25:31.101Z,3.75
2023-03-07T01:26:35.297Z,3.00
2023-03-07T01:27:39.101Z,4.50
2023-03-07T01:28:43.537Z,4.50
2023-03-07T01:29:47.503Z,2.00
2023-03-07T01:32:08.243Z,2.00
2023-03-07T01:33:12.594Z,1.75
2023-03-07T01:34:16.505Z,1.50
2023-03-07T01:35:21.099Z,2.25
2023-03-07T01:36:25.363Z,2.50
2023-03-07T01:37:29.401Z,2.00
2023-03-07T01:38:33.606Z,1.50
2023-03-07T01:39:38.000Z,3.25
2023-03-07T01:41:58.498Z,1.50
2023-03-07T01:43:02.921Z,1.00
2023-03-07T01:44:06.909Z,1.50
2023-03-07T01:45:18.957Z,1.25
2023-03-07T02:51:30.700Z,2.00
2023-03-07T02:52:36.146Z,2.00
2023-03-07T02:53:40.232Z,1.00
2023-03-07T02:54:44.485Z,0.00
2023-03-07T02:55:48.774Z,0.00
2023-03-07T02:56:55.593Z,0.00
2023-03-07T02:57:59.917Z,0.25
2023-03-07T02:59:04.021Z,0.50
2023-03-07T03:00:10.192Z,0.50
2023-03-07T03:01:14.642Z,0.50
2023-03-07T03:02:18.590Z,1.25
2023-03-07T03:03:22.027Z,2.00
2023-03-07T03:04:25.196Z,2.00
2023-03-07T03:05:30.221Z,3.20
2023-03-07T03:06:45.515Z,3.00
2023-03-07T03:07:49.252Z,1.50
2023-03-07T03:08:52.635Z,0.25
2023-03-07T03:09:55.999Z,1.50
2023-03-07T03:10:59.532Z,1.00
2023-03-07T03:12:03.391Z,0.25
2023-03-07T03:13:06.421Z,0.25
2023-03-07T03:14:13.029Z,0.00
2023-03-07T03:15:16.983Z,0.25
2023-03-07T03:16:20.599Z,0.50
2023-03-07T03:17:24.353Z,0.50
2023-03-07T03:24:31.882Z,1.50
2023-03-07T03:25:38.654Z,1.25
2023-03-07T03:26:42.920Z,1.25
2023-03-07T03:27:47.291Z,1.00
2023-03-07T03:28:51.543Z,2.00
2023-03-07T03:29:55.879Z,1.00
2023-03-07T03:31:00.557Z,1.00
2023-03-07T03:32:05.079Z,1.50
2023-03-07T03:33:09.296Z,1.25
2023-03-07T03:34:13.618Z,1.50
2023-03-07T03:35:18.709Z,1.50
2023-03-07T03:36:27.053Z,0.50
2023-03-07T03:37:30.222Z,1.00
2023-03-07T03:38:34.710Z,1.50
2023-03-07T03:39:40.781Z,1.25
2023-03-07T03:40:45.493Z,1.50
2023-03-07T03:41:50.419Z,1.00
2023-03-07T03:42:54.516Z,0.00
2023-03-07T03:43:58.987Z,1.00
2023-03-07T03:45:03.936Z,0.75
2023-03-07T03:46:08.660Z,1.00
2023-03-07T03:47:15.157Z,1.00
2023-03-07T03:48:20.048Z,0.50
2023-03-07T03:49:24.196Z,0.00
2023-03-07T03:50:28.884Z,0.00
2023-03-07T03:51:33.901Z,0.00
2023-03-07T03:52:40.350Z,0.50
2023-03-07T03:53:45.070Z,0.25
2023-03-07T03:54:48.457Z,0.00
2023-03-07T03:55:52.898Z,0.25
2023-03-07T03:57:05.482Z,0.25
2023-03-07T03:58:24.567Z,1.00
2023-03-07T03:59:29.859Z,1.00
2023-03-07T04:00:35.986Z,0.50
2023-03-07T04:01:40.591Z,0.00
2023-03-07T04:02:46.563Z,0.50
2023-03-07T04:03:51.215Z,0.25
2023-03-07T04:04:55.683Z,0.50
2023-03-07T04:06:02.476Z,1.00
2023-03-07T04:07:08.538Z,1.00
2023-03-07T04:08:12.940Z,0.75
2023-03-07T04:09:17.484Z,0.25
2023-03-07T04:10:33.172Z,0.00
2023-03-07T04:11:38.253Z,0.50
2023-03-07T04:12:42.774Z,0.50
2023-03-07T04:13:52.297Z,0.75
2023-03-07T04:14:56.290Z,0.50
2023-03-07T04:15:59.967Z,0.50
2023-03-07T04:17:05.026Z,0.50
2023-03-07T04:18:11.559Z,0.00
2023-03-07T04:19:16.998Z,0.00
2023-03-07T04:20:20.607Z,0.50
2023-03-07T04:21:27.640Z,0.75
2023-03-07T04:22:35.159Z,0.50
2023-03-07T04:23:42.345Z,0.50
2023-03-07T04:24:56.227Z,1.00
2023-03-07T04:26:10.270Z,0.25
2023-03-07T04:27:19.529Z,0.00
2023-03-07T04:28:29.766Z,0.00
2023-03-07T04:37:35.354Z,0.00
2023-03-07T04:38:40.071Z,0.00
2023-03-07T04:39:48.692Z,1.00
2023-03-07T04:41:05.970Z,0.00
2023-03-07T04:42:16.267Z,0.25
2023-03-07T04:43:28.132Z,0.50
2023-03-07T04:44:30.920Z,0.50
2023-03-07T04:45:34.905Z,0.00
2023-03-07T04:46:38.426Z,0.50
2023-03-07T04:47:44.562Z,0.50
2023-03-07T04:48:51.024Z,1.00
2023-03-07T04:49:54.915Z,0.50
2023-03-07T04:50:59.342Z,0.50
2023-03-07T04:52:02.923Z,0.75
2023-03-07T04:53:13.367Z,0.75
2023-03-07T04:54:25.348Z,0.50
2023-03-07T04:55:43.910Z,0.00
2023-03-07T04:58:12.472Z,0.25
2023-03-07T04:59:26.183Z,0.50
2023-03-07T05:00:44.527Z,0.50
2023-03-07T05:01:51.252Z,0.50
2023-03-07T05:04:15.807Z,0.00
2023-03-07T05:05:24.194Z,0.00
2023-03-07T05:06:34.153Z,1.00
2023-03-07T05:09:11.866Z,0.25
2023-03-07T05:11:48.115Z,0.50
2023-03-07T05:12:52.896Z,0.00
2023-03-07T05:13:56.310Z,0.00
2023-03-07T05:15:00.235Z,0.00
2023-03-07T05:16:03.791Z,0.00
2023-03-07T05:17:07.107Z,0.00
2023-03-07T05:18:10.564Z,0.50
2023-03-07T05:19:14.083Z,0.50
2023-03-07T05:20:21.045Z,0.00
2023-03-07T05:21:28.722Z,0.00
2023-03-07T05:22:32.306Z,0.00
2023-03-07T05:23:47.735Z,0.00
2023-03-07T05:24:51.622Z,0.00
2023-03-07T05:33:16.782Z,0.00
2023-03-07T05:34:21.191Z,0.00
2023-03-07T05:36:48.369Z,0.50
2023-03-07T05:37:58.462Z,0.00
2023-03-07T05:39:05.726Z,0.50
2023-03-07T05:40:14.190Z,1.00
2023-03-07T05:41:17.111Z,0.25
2023-03-07T05:43:40.752Z,0.00
2023-03-07T05:46:05.088Z,0.00
2023-03-07T05:48:31.847Z,0.50
2023-03-07T05:49:50.700Z,0.50
2023-03-07T05:51:09.067Z,0.00
2023-03-07T06:02:24.243Z,1.50
2023-03-07T06:03:30.195Z,0.00
2023-03-07T06:04:41.329Z,0.00
2023-03-07T06:05:44.820Z,0.00
2023-03-07T06:15:06.901Z,0.50
2023-03-07T06:16:11.504Z,0.00
2023-03-07T07:15:11.850Z,0.50
2023-03-07T07:21:50.429Z,1.00
2023-03-07T07:22:54.767Z,0.50
2023-03-07T07:34:53.389Z,1.50
2023-03-07T07:36:05.000Z,1.00
2023-03-07T07:39:50.641Z,1.50
2023-03-07T07:42:16.497Z,1.50
2023-03-07T07:43:30.434Z,1.75
2023-03-07T07:45:58.934Z,1.50
2023-03-07T07:48:23.075Z,2.00
2023-03-07T07:49:29.950Z,1.50
2023-03-07T07:50:38.639Z,2.00
2023-03-07T07:54:22.794Z,2.00
2023-03-07T07:55:25.603Z,0.75
2023-03-07T07:56:39.816Z,2.00
2023-03-07T07:59:10.846Z,2.00
2023-03-07T08:00:14.998Z,2.00
2023-03-07T08:02:49.039Z,2.50
2023-03-07T08:07:57.215Z,2.50
2023-03-07T08:10:19.263Z,2.50
2023-03-07T08:12:43.711Z,2.00
2023-03-07T08:13:51.712Z,2.50
2023-03-07T08:14:55.096Z,2.25
2023-03-07T08:17:22.188Z,2.50
2023-03-07T08:19:56.063Z,2.00
2023-03-07T08:20:59.549Z,3.00
2023-03-07T08:22:03.236Z,2.50
2023-03-07T08:23:07.040Z,2.50
2023-03-07T08:24:16.489Z,3.25
2023-03-07T08:25:21.071Z,2.75
2023-03-07T08:27:46.403Z,2.50
2023-03-07T08:28:49.981Z,2.50
2023-03-07T08:29:55.764Z,3.50
2023-03-07T08:33:45.603Z,3.00
2023-03-07T08:34:52.798Z,2.50
2023-03-07T08:36:03.299Z,2.25
2023-03-07T08:37:12.392Z,3.00
2023-03-07T08:41:41.492Z,2.50
2023-03-07T08:44:09.434Z,3.50
2023-03-07T08:46:37.749Z,3.00
2023-03-07T08:47:46.588Z,2.75
2023-03-07T08:51:49.237Z,2.50
2023-03-07T08:53:03.153Z,3.50
2023-03-07T08:54:13.050Z,3.25
2023-03-07T08:56:40.740Z,2.75
2023-03-07T08:57:43.706Z,2.00
2023-03-07T09:02:56.030Z,2.75
2023-03-07T09:05:20.137Z,3.00
2023-03-07T09:06:23.322Z,3.75
2023-03-07T09:07:26.217Z,3.50
2023-03-07T09:08:33.648Z,3.00
2023-03-07T09:09:37.968Z,3.50
2023-03-07T09:13:23.960Z,3.50
2023-03-07T09:14:26.835Z,3.75
2023-03-07T09:15:34.350Z,4.00
2023-03-07T09:19:27.645Z,2.50
2023-03-07T09:28:20.523Z,3.50
2023-03-07T09:30:49.380Z,3.50
2023-03-07T09:31:54.944Z,4.00
2023-03-07T09:33:02.272Z,3.50
2023-03-07T09:36:46.805Z,3.50
2023-03-07T09:37:50.076Z,4.00
2023-03-07T09:38:58.056Z,4.00
2023-03-07T09:40:00.387Z,3.50
2023-03-07T09:43:47.060Z,4.75
2023-03-07T09:44:50.287Z,3.50
2023-03-07T09:52:43.822Z,3.50
2023-03-07T09:53:46.720Z,4.00
2023-03-07T09:55:06.699Z,3.50
2023-03-07T10:00:22.765Z,3.50
2023-03-07T10:08:15.671Z,5.00
2023-03-07T10:09:21.833Z,4.50
2023-03-07T10:17:10.096Z,4.00
2023-03-07T10:18:19.744Z,4.00
2023-03-07T10:22:03.773Z,4.50
2023-03-07T10:23:06.571Z,4.25
2023-03-07T10:24:26.467Z,3.75
2023-03-07T10:26:49.896Z,3.75
2023-03-07T10:27:53.121Z,4.00
2023-03-07T10:28:56.557Z,3.50
2023-03-07T10:29:59.378Z,4.00
2023-03-07T10:31:11.007Z,3.75
2023-03-07T10:32:19.066Z,3.50
2023-03-07T10:33:21.465Z,4.00
2023-03-07T10:34:27.339Z,4.20
2023-03-07T10:35:28.825Z,5.00
2023-03-07T10:36:31.783Z,4.00
2023-03-07T10:37:43.979Z,4.50
2023-03-07T10:38:47.029Z,5.00
2023-03-07T10:41:12.969Z,3.75
2023-03-07T10:42:25.726Z,4.25
2023-03-07T10:44:58.343Z,3.50
2023-03-07T10:46:01.340Z,4.00
2023-03-07T10:47:04.266Z,4.50
2023-03-07T10:48:13.333Z,3.75
2023-03-07T10:49:16.223Z,2.75
2023-03-07T10:50:26.667Z,3.25
2023-03-07T10:51:32.568Z,3.50
2023-03-07T10:52:37.142Z,4.00
2023-03-07T10:53:40.119Z,4.25
2023-03-07T10:54:44.220Z,5.00
2023-03-07T10:57:07.806Z,4.00
2023-03-07T10:59:37.026Z,4.00
2023-03-07T11:02:00.730Z,4.00
2023-03-07T11:03:03.921Z,4.50
2023-03-07T11:04:08.940Z,3.00
2023-03-07T11:05:12.001Z,3.50
2023-03-07T11:06:16.003Z,4.50
2023-03-07T11:07:23.573Z,4.50
2023-03-07T11:08:27.770Z,4.50
2023-03-07T11:10:52.107Z,4.75
2023-03-07T11:12:00.677Z,4.50
2023-03-07T11:13:07.247Z,4.00
2023-03-07T11:15:33.296Z,3.25
2023-03-07T11:16:37.352Z,4.00
2023-03-07T11:17:40.227Z,4.50
2023-03-07T11:18:47.769Z,4.75
2023-03-07T11:19:50.050Z,4.50
2023-03-07T11:21:09.285Z,4.50
2023-03-07T11:22:18.063Z,4.00
2023-03-07T11:24:51.178Z,5.00
2023-03-07T11:25:54.099Z,4.75
2023-03-07T11:28:17.267Z,4.50
2023-03-07T11:29:20.041Z,4.25
2023-03-07T11:30:23.278Z,4.00
2023-03-07T11:32:46.423Z,5.00
2023-03-07T11:33:59.115Z,4.50
2023-03-07T11:34:53.818Z,4.00
2023-03-07T11:36:01.120Z,4.50
2023-03-07T11:37:03.955Z,4.75
2023-03-07T11:38:06.780Z,4.75
2023-03-07T11:40:50.200Z,4.50
2023-03-07T11:41:54.026Z,4.75
2023-03-07T11:55:04.403Z,10.50
2023-03-07T11:56:08.352Z,4.50
2023-03-07T11:57:11.820Z,4.75
2023-03-07T11:58:15.300Z,5.00
2023-03-07T11:59:19.060Z,3.75
2023-03-07T12:00:23.171Z,5.00
2023-03-07T12:01:27.367Z,5.00
2023-03-07T12:02:30.965Z,5.50
2023-03-07T12:03:34.959Z,5.00
2023-03-07T12:04:43.696Z,5.00
2023-03-07T12:05:50.915Z,4.25
2023-03-07T12:06:54.759Z,4.75
2023-03-07T12:08:05.933Z,5.00
2023-03-07T12:09:09.415Z,5.00
2023-03-07T12:10:16.045Z,4.25
2023-03-07T12:11:19.380Z,4.00
2023-03-07T12:12:23.163Z,4.50
2023-03-07T12:13:27.261Z,4.50
2023-03-07T12:14:30.437Z,5.00
2023-03-07T12:15:34.746Z,5.25
2023-03-07T12:16:39.561Z,5.50
2023-03-07T12:17:43.078Z,5.50
2023-03-07T12:18:46.976Z,4.50
2023-03-07T12:19:51.401Z,4.25
2023-03-07T12:20:55.111Z,4.50
2023-03-07T12:21:59.778Z,4.75
2023-03-07T12:23:03.287Z,4.50
2023-03-07T12:24:10.750Z,5.00
2023-03-07T12:25:14.152Z,5.50
2023-03-07T12:26:21.629Z,4.00
2023-03-07T12:27:26.925Z,4.50
2023-03-07T12:28:30.542Z,5.25
2023-03-07T12:29:34.385Z,6.00
2023-03-07T12:30:38.051Z,5.00
2023-03-07T12:31:42.198Z,4.00
2023-03-07T12:32:45.852Z,4.50
2023-03-07T12:33:49.535Z,5.00
2023-03-07T12:34:53.440Z,5.25
2023-03-07T12:35:57.452Z,5.00
2023-03-07T12:37:01.530Z,4.50
2023-03-07T12:38:09.822Z,4.50
2023-03-07T12:39:13.420Z,5.00
2023-03-07T12:40:17.160Z,3.75
2023-03-07T12:41:20.745Z,4.00
2023-03-07T12:42:24.513Z,4.00
2023-03-07T12:43:28.095Z,5.00
2023-03-07T12:44:34.240Z,5.50
2023-03-07T12:45:38.834Z,5.75
2023-03-07T12:46:42.857Z,5.00
2023-03-07T12:47:46.871Z,4.50
2023-03-07T12:48:50.427Z,4.50
2023-03-07T12:49:54.682Z,4.50
2023-03-07T12:50:58.457Z,4.00
2023-03-07T12:52:02.976Z,4.25
2023-03-07T12:53:06.327Z,5.00
2023-03-07T12:54:10.165Z,5.00
2023-03-07T12:55:13.639Z,5.00
2023-03-07T12:56:17.184Z,4.50
2023-03-07T12:57:21.358Z,4.75
2023-03-07T12:58:25.689Z,5.00
2023-03-07T12:59:29.572Z,5.00
2023-03-07T13:00:33.029Z,5.25
2023-03-07T13:01:36.414Z,5.00
2023-03-07T13:02:42.911Z,5.50
2023-03-07T13:03:46.317Z,5.50
2023-03-07T13:04:49.467Z,5.00
2023-03-07T13:05:53.882Z,4.50
2023-03-07T13:06:57.237Z,4.00
2023-03-07T13:08:02.263Z,5.00
2023-03-07T13:09:07.911Z,4.50
2023-03-07T13:10:11.091Z,5.00
2023-03-07T13:11:15.082Z,5.40
2023-03-07T13:12:18.498Z,4.75
2023-03-07T13:13:21.854Z,3.50
2023-03-07T13:14:26.491Z,3.60
2023-03-07T13:15:30.278Z,4.00
2023-03-07T13:16:33.994Z,4.00
2023-03-07T13:17:37.456Z,4.00
2023-03-07T13:18:41.151Z,3.50
2023-03-07T13:19:44.468Z,3.75
2023-03-07T13:20:48.154Z,3.00
2023-03-07T13:21:52.338Z,3.00
2023-03-07T13:22:55.864Z,3.50
2023-03-07T13:24:00.129Z,2.25
2023-03-07T13:25:04.149Z,1.75
2023-03-07T13:26:07.619Z,2.50
2023-03-07T13:27:11.036Z,2.50
2023-03-07T13:28:14.735Z,2.50
2023-03-07T13:29:18.705Z,2.00
2023-03-07T13:30:24.078Z,2.25
2023-03-07T13:31:27.214Z,2.00
2023-03-07T13:32:30.639Z,1.75
2023-03-07T13:33:33.715Z,1.75
2023-03-07T13:34:37.157Z,1.00
2023-03-07T13:35:41.112Z,0.75
2023-03-07T13:36:45.171Z,1.00
2023-03-07T13:37:48.597Z,1.00
2023-03-07T13:38:51.873Z,1.00
2023-03-07T13:39:55.334Z,1.00
2023-03-07T13:40:58.508Z,2.00
2023-03-07T13:42:02.079Z,1.00
2023-03-07T13:43:06.142Z,0.50
2023-03-07T13:44:09.513Z,1.00
2023-03-07T13:45:15.226Z,1.25
2023-03-07T13:46:19.151Z,1.50
2023-03-07T13:47:31.675Z,1.25
2023-03-07T13:48:35.457Z,1.50
2023-03-07T13:49:39.545Z,1.00
2023-03-07T13:50:42.831Z,1.00
2023-03-07T13:51:46.386Z,1.50
2023-03-07T13:52:49.889Z,1.50
2023-03-07T13:53:53.672Z,1.00
2023-03-07T13:54:57.366Z,1.00
2023-03-07T13:56:00.767Z,1.00
2023-03-07T13:57:04.152Z,1.00
2023-03-07T13:58:07.742Z,1.00
2023-03-07T13:59:11.343Z,1.00
2023-03-07T14:00:15.254Z,1.00
2023-03-07T14:01:18.625Z,1.00
2023-03-07T14:02:22.213Z,0.75
2023-03-07T14:03:27.718Z,1.50
2023-03-07T14:04:39.861Z,1.50
2023-03-07T14:05:35.664Z,1.25
2023-03-07T14:06:39.040Z,1.00
2023-03-07T14:07:42.538Z,1.00
2023-03-07T14:08:46.018Z,1.00
2023-03-07T14:09:49.930Z,2.00
2023-03-07T14:10:54.447Z,2.00
2023-03-07T14:12:02.775Z,2.00
2023-03-07T14:13:06.528Z,1.75
2023-03-07T14:14:10.113Z,1.00
2023-03-07T14:15:13.627Z,1.00
2023-03-07T14:16:17.502Z,0.50
2023-03-07T14:17:20.752Z,1.00
2023-03-07T14:18:23.995Z,0.50
2023-03-07T14:19:28.075Z,1.00
2023-03-07T14:20:31.572Z,1.00
2023-03-07T14:21:35.080Z,0.25
2023-03-07T14:22:38.440Z,0.50
2023-03-07T14:23:42.521Z,1.00
2023-03-07T14:24:46.040Z,0.50
2023-03-07T14:25:51.344Z,0.50
2023-03-07T14:26:55.273Z,1.00
2023-03-07T14:27:58.451Z,1.00
2023-03-07T14:29:02.102Z,1.00
2023-03-07T14:30:05.534Z,1.00
2023-03-07T14:31:08.681Z,1.00
2023-03-07T14:32:13.076Z,1.00
2023-03-07T14:33:16.304Z,0.50
2023-03-07T14:34:19.619Z,0.75
2023-03-07T14:35:23.315Z,1.00
2023-03-07T14:36:26.478Z,1.00
2023-03-07T14:37:30.092Z,1.00
2023-03-07T14:38:33.457Z,1.00
2023-03-07T14:39:36.771Z,0.25
2023-03-07T14:40:42.780Z,0.50
2023-03-07T14:41:46.179Z,1.00
2023-03-07T14:42:50.275Z,1.00
2023-03-07T14:43:55.501Z,0.75
2023-03-07T14:44:58.789Z,0.50
2023-03-07T14:46:03.766Z,1.00
2023-03-07T14:47:07.192Z,0.50
2023-03-07T14:48:10.584Z,0.50
2023-03-07T14:49:14.082Z,0.50
2023-03-07T14:50:17.755Z,0.00
2023-03-07T14:51:21.171Z,0.50
2023-03-07T14:52:31.169Z,0.50
2023-03-07T14:53:30.067Z,0.00
2023-03-07T14:54:33.892Z,0.50
2023-03-07T14:55:37.171Z,0.25
2023-03-07T14:56:41.582Z,0.00
2023-03-07T14:57:45.458Z,0.00
2023-03-07T14:58:49.768Z,0.00
2023-03-07T14:59:53.767Z,0.50
2023-03-07T15:00:58.374Z,0.50
2023-03-07T15:02:02.411Z,0.00
2023-03-07T15:03:06.596Z,0.00
2023-03-07T15:04:10.149Z,0.00
2023-03-07T15:05:14.069Z,0.00
2023-03-07T15:06:17.791Z,0.25
2023-03-07T15:07:21.071Z,0.00
2023-03-07T15:08:25.153Z,0.00
2023-03-07T15:09:28.665Z,0.50
2023-03-07T15:10:32.811Z,0.00
2023-03-07T15:11:37.178Z,0.50
2023-03-07T15:12:40.669Z,0.00
2023-03-07T15:13:44.961Z,0.00
2023-03-07T15:14:49.059Z,0.00
2023-03-07T15:15:52.625Z,0.00
2023-03-07T15:16:57.203Z,0.00
2023-03-07T15:18:02.110Z,0.00
2023-03-07T15:19:05.510Z,0.00
2023-03-07T15:20:08.868Z,0.00
2023-03-07T15:21:15.345Z,0.25
2023-03-07T15:22:18.418Z,0.50
2023-03-07T15:23:23.224Z,0.00
2023-03-07T15:24:29.347Z,0.00
2023-03-07T15:25:33.082Z,0.00
2023-03-07T15:26:36.454Z,0.00
2023-03-07T15:27:40.055Z,0.00
2023-03-07T15:28:43.163Z,0.00
2023-03-07T15:29:46.119Z,0.00
2023-03-07T15:30:51.122Z,0.00
2023-03-07T15:31:54.841Z,0.00
2023-03-07T15:32:58.322Z,0.00
2023-03-07T15:34:01.603Z,0.00
2023-03-07T15:35:04.823Z,0.00
2023-03-07T15:36:09.140Z,0.00
2023-03-07T15:37:12.516Z,0.00
2023-03-07T15:38:16.376Z,0.00
2023-03-07T15:39:20.199Z,0.00
2023-03-07T15:40:23.988Z,0.50
2023-03-07T15:41:30.040Z,0.00
2023-03-07T15:42:34.034Z,0.00
2023-03-07T15:43:44.992Z,0.00
2023-03-07T15:44:50.746Z,0.00
2023-03-07T15:45:54.774Z,0.00
2023-03-07T15:47:00.163Z,0.00
2023-03-07T15:48:03.444Z,0.00
2023-03-07T15:50:27.530Z,0.00
2023-03-07T15:52:52.562Z,0.00
2023-03-07T15:53:56.543Z,0.00
2023-03-07T15:55:00.220Z,0.00
2023-03-07T15:57:26.655Z,0.00
2023-03-07T15:58:30.148Z,0.00
2023-03-07T15:59:34.158Z,0.50
2023-03-07T16:00:37.777Z,0.25
2023-03-07T16:01:41.903Z,0.00
2023-03-07T16:02:45.678Z,0.25
2023-03-07T16:03:50.716Z,0.00
2023-03-07T16:04:54.218Z,0.00
2023-03-07T16:05:57.981Z,0.00
2023-03-07T16:07:03.104Z,0.75
2023-03-07T16:08:06.773Z,0.00
2023-03-07T16:09:10.569Z,0.00
2023-03-07T16:10:14.169Z,0.00
2023-03-07T16:12:43.174Z,0.00
2023-03-07T16:13:46.656Z,0.00
2023-03-07T16:14:50.263Z,0.00
2023-03-07T16:15:55.029Z,0.00
2023-03-07T16:16:59.413Z,0.50
2023-03-07T16:18:03.155Z,1.00
2023-03-07T16:19:07.466Z,0.50
2023-03-07T16:20:11.161Z,0.00
2023-03-07T16:21:14.745Z,0.25
2023-03-07T16:22:21.613Z,0.00
2023-03-07T16:23:26.348Z,0.50
2023-03-07T16:24:29.928Z,0.25
2023-03-07T16:25:34.433Z,0.00
2023-03-07T16:26:38.332Z,0.00
2023-03-07T16:27:42.095Z,0.50
2023-03-07T16:28:45.422Z,0.25
2023-03-07T16:30:06.537Z,0.00
2023-03-07T16:31:10.431Z,0.00
2023-03-07T16:32:13.570Z,0.25
2023-03-07T16:33:19.141Z,0.00
2023-03-07T16:34:22.529Z,0.50
2023-03-07T16:35:26.440Z,1.00
2023-03-07T16:36:31.143Z,1.00
2023-03-07T16:37:36.061Z,0.75
2023-03-07T16:38:40.812Z,0.50
2023-03-07T16:39:44.476Z,0.00
2023-03-07T16:40:48.173Z,0.50
2023-03-07T16:41:51.553Z,0.50
2023-03-07T16:42:55.067Z,0.50
2023-03-07T16:43:58.469Z,0.00
2023-03-07T16:45:02.383Z,0.50
2023-03-07T16:46:06.813Z,0.25
2023-03-07T16:47:10.435Z,0.00
2023-03-07T16:48:14.332Z,0.50
2023-03-07T16:49:17.814Z,0.75
2023-03-07T16:50:22.432Z,1.00
2023-03-07T16:51:26.057Z,0.50
2023-03-07T16:52:29.406Z,0.25
2023-03-07T16:53:34.614Z,0.00
2023-03-07T16:54:38.044Z,0.00
2023-03-07T16:55:41.835Z,0.00
2023-03-07T16:56:46.152Z,0.00
2023-03-07T16:57:49.747Z,0.00
2023-03-07T16:58:53.049Z,0.00
2023-03-07T16:59:56.643Z,0.00
2023-03-07T17:01:00.721Z,0.00
2023-03-07T17:02:04.264Z,0.50
2023-03-07T17:03:08.882Z,0.25
2023-03-07T17:04:13.636Z,0.00
2023-03-07T17:05:16.817Z,0.50
2023-03-07T17:06:23.471Z,1.00
2023-03-07T17:07:25.645Z,1.00
2023-03-07T17:08:28.954Z,0.25
2023-03-07T17:09:32.622Z,0.00
2023-03-07T17:10:36.937Z,0.00
2023-03-07T17:11:40.412Z,0.50
2023-03-07T17:12:44.961Z,1.00
2023-03-07T17:13:48.654Z,1.00
2023-03-07T17:14:52.620Z,1.00
2023-03-07T17:15:56.267Z,0.50
2023-03-07T17:17:00.930Z,0.50
2023-03-07T17:18:05.442Z,0.50
2023-03-07T17:19:09.228Z,0.75
2023-03-07T17:20:12.544Z,0.50
2023-03-07T17:21:15.816Z,0.00
2023-03-07T17:22:20.740Z,0.50
2023-03-07T17:23:24.341Z,0.50
2023-03-07T17:24:28.522Z,0.50
2023-03-07T17:25:32.230Z,0.50
2023-03-07T17:26:35.404Z,0.75
2023-03-07T17:27:38.582Z,0.50
2023-03-07T17:28:41.967Z,0.50
2023-03-07T17:29:45.564Z,1.00
2023-03-07T17:30:49.007Z,0.75
2023-03-07T17:31:52.352Z,1.25
2023-03-07T17:32:55.723Z,1.00
2023-03-07T17:33:59.348Z,0.50
2023-03-07T17:35:02.729Z,1.00
2023-03-07T17:36:06.338Z,1.00
2023-03-07T17:37:09.891Z,1.50
2023-03-07T17:38:13.587Z,1.00
2023-03-07T17:39:17.783Z,1.00
2023-03-07T17:40:21.315Z,1.00
2023-03-07T17:41:25.694Z,0.75
2023-03-07T17:42:28.870Z,0.50
2023-03-07T17:43:32.694Z,0.25
2023-03-07T17:44:36.405Z,0.00
2023-03-07T17:45:39.750Z,1.00
2023-03-07T17:46:43.457Z,1.00
2023-03-07T17:47:46.984Z,1.00
2023-03-07T17:48:50.864Z,0.25
2023-03-07T17:49:54.331Z,0.75
2023-03-07T17:51:04.237Z,1.00
2023-03-07T17:52:07.731Z,1.00
2023-03-07T17:53:11.237Z,1.00
2023-03-07T17:54:15.159Z,1.00
2023-03-07T17:55:19.042Z,1.00
2023-03-07T17:56:22.088Z,0.50
2023-03-07T17:57:25.071Z,1.00
2023-03-07T17:58:31.622Z,1.00
2023-03-07T17:59:35.715Z,1.00
2023-03-07T18:00:40.781Z,1.00
2023-03-07T18:01:52.871Z,1.00
2023-03-07T18:02:56.006Z,1.00
2023-03-07T18:03:59.221Z,1.00
2023-03-07T18:05:02.651Z,1.00
2023-03-07T18:06:06.122Z,1.00
2023-03-07T18:07:09.916Z,1.50
2023-03-07T18:08:13.129Z,0.75
2023-03-07T18:09:17.099Z,1.00
2023-03-07T18:10:20.703Z,0.00
2023-03-07T18:11:25.188Z,1.50
2023-03-07T18:12:28.653Z,1.25
2023-03-07T18:13:32.473Z,1.50
2023-03-07T18:14:36.074Z,1.25
2023-03-07T18:15:40.582Z,1.00
2023-03-07T18:16:43.974Z,1.00
2023-03-07T18:17:49.164Z,1.00
2023-03-07T18:18:59.498Z,0.50
2023-03-07T18:19:58.137Z,1.00
2023-03-07T18:21:01.833Z,1.00
2023-03-07T18:22:12.217Z,1.00
2023-03-07T18:23:16.620Z,1.50
2023-03-07T18:24:20.543Z,1.25
2023-03-07T18:25:25.557Z,1.00
2023-03-07T18:26:29.189Z,1.00
2023-03-07T18:27:32.798Z,1.50
2023-03-07T18:28:41.226Z,2.00
2023-03-07T18:29:45.915Z,1.25
2023-03-07T18:30:49.800Z,2.00
2023-03-07T18:31:53.242Z,1.50
2023-03-07T18:32:56.696Z,1.00
2023-03-07T18:34:00.183Z,1.50
2023-03-07T18:35:03.864Z,1.00
2023-03-07T18:36:10.169Z,0.50
2023-03-07T18:37:13.840Z,1.50
2023-03-07T18:38:17.496Z,1.50
2023-03-07T18:39:21.238Z,1.25
2023-03-07T18:41:47.514Z,1.00
2023-03-07T18:42:51.052Z,2.00
2023-03-07T18:43:55.029Z,1.50
2023-03-07T18:44:58.417Z,0.75
2023-03-07T18:46:02.921Z,1.25
2023-03-07T18:47:06.399Z,1.00
2023-03-07T18:48:17.797Z,1.50
2023-03-07T18:49:21.160Z,1.75
2023-03-07T18:50:25.099Z,2.00
2023-03-07T18:51:29.355Z,2.00
2023-03-07T18:52:32.701Z,2.00
2023-03-07T18:53:35.861Z,2.00
2023-03-07T18:54:39.249Z,2.00
2023-03-07T18:55:42.627Z,2.00
2023-03-07T18:56:56.610Z,1.50
2023-03-07T18:58:02.539Z,1.75
2023-03-07T18:59:05.777Z,1.75
2023-03-07T19:00:09.392Z,2.00
2023-03-07T19:01:14.160Z,1.75
2023-03-07T19:02:19.354Z,2.00
2023-03-07T19:03:29.232Z,2.00
2023-03-07T19:04:33.840Z,2.00
2023-03-07T19:05:37.284Z,2.00
2023-03-07T19:06:40.848Z,2.00
2023-03-07T19:07:44.362Z,0.75
2023-03-07T19:08:48.142Z,1.00
2023-03-07T19:09:57.167Z,1.50
2023-03-07T19:11:00.659Z,1.00
2023-03-07T19:12:04.340Z,1.00
2023-03-07T19:13:09.451Z,1.50
2023-03-07T19:14:13.972Z,1.25
2023-03-07T19:16:43.498Z,1.25
2023-03-07T19:17:46.664Z,1.00
2023-03-07T19:18:50.567Z,1.50
2023-03-07T19:19:54.168Z,1.50
2023-03-07T19:20:58.777Z,2.00
2023-03-07T19:22:04.319Z,1.50
2023-03-07T19:23:07.630Z,2.00
2023-03-07T19:24:11.099Z,2.00
2023-03-07T19:25:24.766Z,2.00
2023-03-07T19:26:29.436Z,1.50
2023-03-07T19:27:32.819Z,2.00
2023-03-07T19:28:36.641Z,2.00
2023-03-07T19:29:40.000Z,2.00
2023-03-07T19:32:04.023Z,2.50
2023-03-07T19:33:11.916Z,1.25
2023-03-07T19:34:15.778Z,1.50
2023-03-07T19:35:19.274Z,2.00
2023-03-07T19:37:43.559Z,2.00
2023-03-07T19:40:11.391Z,1.00
2023-03-07T19:41:17.392Z,2.50
2023-03-07T19:42:22.200Z,2.00
2023-03-07T19:44:46.870Z,2.50
2023-03-07T19:45:50.396Z,2.00
2023-03-07T19:46:55.832Z,1.50
2023-03-07T19:48:00.010Z,2.00
2023-03-07T19:49:08.362Z,2.50
2023-03-07T19:50:12.097Z,3.00
2023-03-07T19:55:13.906Z,3.50
2023-03-07T19:56:17.991Z,3.50
2023-03-07T19:57:23.814Z,4.25